Time;durP1;ratioP1;P1;durP2;ratioP2;P2;SDS_P1;SDS_P2;PMS_P1;PMS_P2;Temp;Humidity;BMP_temperature;BMP_pressure;BME280_temperature;BME280_humidity;BME280_pressure;Samples;Min_cycle;Max_cycle;Signal;HPM_P1;HPM_P2
2021/03/02 00:01:10;;;;;;;34.08;18.20;;;8.70;71.60;;;;;;4968443;28;20116;-61
2021/03/02 00:03:37;;;;;;;40.85;19.45;;;8.60;71.70;;;;;;5049122;28;20112;-62
2021/03/02 00:06:08;;;;;;;28.90;17.27;;;8.60;71.80;;;;;;4954998;28;20521;-61
2021/03/02 00:08:36;;;;;;;34.40;19.25;;;8.60;72.00;;;;;;4959942;28;20051;-62
2021/03/02 00:11:03;;;;;;;35.22;18.23;;;8.60;72.10;;;;;;4986624;28;20460;-61
2021/03/02 00:13:29;;;;;;;32.20;17.75;;;8.60;72.10;;;;;;5013224;28;20043;-62
2021/03/02 00:16:05;;;;;;;31.52;17.05;;;8.50;72.70;;;;;;4955979;28;20396;-62
2021/03/02 00:18:50;;;;;;;31.88;17.10;;;8.50;72.20;;;;;;5017749;28;20285;-62
2021/03/02 00:21:19;;;;;;;36.85;18.55;;;8.50;72.20;;;;;;4949862;28;20042;-62
2021/03/02 00:23:51;;;;;;;31.77;17.60;;;8.50;72.10;;;;;;4954140;28;20423;-62
2021/03/02 00:26:19;;;;;;;26.55;14.98;;;8.50;72.10;;;;;;4960902;28;20094;-62
2021/03/02 00:28:49;;;;;;;29.13;16.40;;;8.50;72.20;;;;;;4959056;28;20040;-62
2021/03/02 00:31:15;;;;;;;31.38;17.35;;;8.50;72.10;;;;;;4970315;28;20027;-62
2021/03/02 00:33:44;;;;;;;31.92;17.40;;;8.50;72.00;;;;;;4949687;28;20111;-62
2021/03/02 00:36:10;;;;;;;33.92;15.95;;;8.50;71.90;;;;;;4972313;28;20046;-62
2021/03/02 00:38:36;;;;;;;29.23;16.55;;;8.60;71.80;;;;;;4956414;28;20031;-62
2021/03/02 00:41:02;;;;;;;31.92;17.02;;;8.60;71.80;;;;;;4955119;28;20066;-61
2021/03/02 00:43:27;;;;;;;36.15;20.17;;;8.60;71.70;;;;;;4950208;29;20485;-62
2021/03/02 00:45:53;;;;;;;29.30;16.80;;;8.50;71.70;;;;;;4965429;28;20149;-61
2021/03/02 00:48:18;;;;;;;31.80;17.55;;;8.50;72.00;;;;;;4950032;29;20039;-62
2021/03/02 00:50:44;;;;;;;31.15;17.85;;;8.50;72.00;;;;;;4949261;28;20062;-61
2021/03/02 00:53:10;;;;;;;34.33;19.02;;;8.50;71.90;;;;;;4958671;28;20058;-62
2021/03/02 00:55:35;;;;;;;33.78;18.38;;;8.50;71.80;;;;;;4977072;28;20350;-62
2021/03/02 00:58:01;;;;;;;33.17;19.10;;;8.50;71.90;;;;;;4951600;28;20058;-62
2021/03/02 01:00:27;;;;;;;33.70;17.90;;;8.50;71.80;;;;;;4949920;28;20035;-62
2021/03/02 01:02:52;;;;;;;33.42;19.88;;;8.50;71.70;;;;;;4971103;28;20098;-62
2021/03/02 01:05:18;;;;;;;34.90;17.30;;;8.50;71.90;;;;;;4996620;28;20039;-62
2021/03/02 01:07:43;;;;;;;36.35;19.13;;;8.50;71.90;;;;;;5011236;28;20060;-62
2021/03/02 01:10:12;;;;;;;29.88;16.13;;;8.40;72.00;;;;;;5013326;28;20029;-61
2021/03/02 01:12:38;;;;;;;33.15;15.95;;;8.40;72.10;;;;;;5050732;28;20029;-61
2021/03/02 01:15:06;;;;;;;33.67;18.05;;;8.30;72.10;;;;;;5012439;28;20098;-62
2021/03/02 01:17:32;;;;;;;32.20;17.10;;;8.30;72.10;;;;;;4991393;28;20027;-62
2021/03/02 01:19:57;;;;;;;35.67;18.42;;;8.30;72.10;;;;;;4952665;28;20068;-61
2021/03/02 01:22:23;;;;;;;32.00;18.80;;;8.30;72.10;;;;;;4942425;28;20118;-62
2021/03/02 01:24:49;;;;;;;37.55;19.35;;;8.30;72.10;;;;;;4957684;28;20085;-62
2021/03/02 01:27:15;;;;;;;34.88;17.40;;;8.30;72.10;;;;;;4958944;28;20069;-62
2021/03/02 01:29:40;;;;;;;36.30;18.30;;;8.30;72.20;;;;;;4972140;28;20055;-62
2021/03/02 01:32:06;;;;;;;35.03;19.52;;;8.30;72.30;;;;;;4986947;28;20033;-62
2021/03/02 01:34:32;;;;;;;37.88;20.00;;;8.20;72.40;;;;;;4961476;28;20469;-62
2021/03/02 01:36:58;;;;;;;33.20;17.73;;;8.20;72.60;;;;;;5013844;28;21600;-62
2021/03/02 01:39:24;;;;;;;36.22;18.55;;;8.10;72.80;;;;;;4948490;28;20035;-62
2021/03/02 01:41:54;;;;;;;37.58;20.05;;;8.10;72.90;;;;;;4977275;28;20126;-62
2021/03/02 01:44:21;;;;;;;29.40;15.45;;;8.10;72.90;;;;;;4948593;28;20122;-63
2021/03/02 01:46:48;;;;;;;33.90;17.55;;;8.00;72.90;;;;;;4968801;28;20039;-62
2021/03/02 01:49:15;;;;;;;34.63;17.85;;;8.00;73.00;;;;;;4949314;28;20028;-61
2021/03/02 01:51:40;;;;;;;33.10;17.23;;;8.00;73.00;;;;;;4953980;28;20031;-61
2021/03/02 01:54:06;;;;;;;35.00;19.23;;;8.00;73.60;;;;;;4949041;28;20089;-62
2021/03/02 01:56:32;;;;;;;37.72;19.70;;;8.00;72.90;;;;;;4944146;28;20062;-62
2021/03/02 01:58:58;;;;;;;32.83;18.55;;;8.00;72.80;;;;;;4963173;28;20043;-62
2021/03/02 02:01:24;;;;;;;31.92;17.05;;;8.10;72.60;;;;;;4951283;28;20101;-61
2021/03/02 02:03:56;;;;;;;37.10;18.67;;;8.00;72.60;;;;;;4948676;28;20035;-62
2021/03/02 02:06:39;;;;;;;34.60;18.60;;;8.00;72.70;;;;;;4970886;28;20025;-61
2021/03/02 02:09:08;;;;;;;34.80;17.38;;;7.90;72.80;;;;;;4963220;28;20027;-62
2021/03/02 02:12:05;;;;;;;36.53;20.15;;;8.00;72.70;;;;;;4949866;28;20131;-61
2021/03/02 02:14:45;;;;;;;33.10;18.27;;;7.90;72.80;;;;;;4992677;28;20050;-61
2021/03/02 02:17:23;;;;;;;33.78;18.92;;;7.80;72.80;;;;;;4951408;28;20035;-62
2021/03/02 02:20:01;;;;;;;38.78;19.45;;;7.80;72.90;;;;;;4952207;28;20034;-62
2021/03/02 02:22:31;;;;;;;39.33;20.38;;;7.80;73.00;;;;;;4987762;28;20039;-62
2021/03/02 02:24:56;;;;;;;34.80;19.27;;;7.80;73.10;;;;;;4985331;28;20039;-61
2021/03/02 02:27:22;;;;;;;34.67;17.88;;;7.70;73.10;;;;;;4995208;28;20033;-62
2021/03/02 02:29:48;;;;;;;36.78;19.27;;;7.70;73.30;;;;;;4989556;28;20165;-61
2021/03/02 02:32:14;;;;;;;37.17;19.35;;;7.70;73.30;;;;;;4975563;28;20148;-61
2021/03/02 02:34:41;;;;;;;37.08;19.70;;;7.70;73.30;;;;;;4953296;28;20051;-61
2021/03/02 02:37:08;;;;;;;34.75;19.02;;;7.70;73.30;;;;;;4977712;28;20033;-61
2021/03/02 02:39:34;;;;;;;36.45;17.67;;;7.70;73.50;;;;;;5013396;28;20410;-61
2021/03/02 02:42:02;;;;;;;34.60;18.95;;;7.70;73.50;;;;;;4980324;28;20037;-61
2021/03/02 02:44:29;;;;;;;44.90;20.65;;;7.70;73.60;;;;;;4970214;28;20101;-61
2021/03/02 02:46:57;;;;;;;39.95;20.23;;;7.70;73.40;;;;;;4950788;28;20023;-61
2021/03/02 02:49:24;;;;;;;34.65;17.98;;;7.70;73.40;;;;;;4947883;29;20031;-62
2021/03/02 02:51:50;;;;;;;34.45;18.75;;;7.70;73.60;;;;;;4948895;28;20062;-62
2021/03/02 02:54:17;;;;;;;35.30;20.67;;;7.60;73.50;;;;;;4948527;28;20481;-61
2021/03/02 02:56:44;;;;;;;39.45;19.75;;;7.70;73.20;;;;;;4950443;28;20030;-62
2021/03/02 02:59:18;;;;;;;42.17;21.00;;;7.60;73.70;;;;;;4970387;28;20345;-61
2021/03/02 03:01:47;;;;;;;36.80;22.02;;;7.60;73.70;;;;;;5005359;28;20075;-62
2021/03/02 03:04:17;;;;;;;35.28;19.02;;;7.60;73.80;;;;;;4991924;28;20124;-62
2021/03/02 03:06:45;;;;;;;37.45;19.48;;;7.60;73.80;;;;;;4975227;28;20170;-61
2021/03/02 03:09:12;;;;;;;38.80;20.38;;;7.50;74.50;;;;;;4969857;28;20033;-61
2021/03/02 03:11:53;;;;;;;38.27;20.63;;;7.50;74.00;;;;;;4966384;28;20141;-62
2021/03/02 03:14:21;;;;;;;40.88;20.95;;;7.40;74.20;;;;;;4998064;28;20097;-61
2021/03/02 03:16:49;;;;;;;37.55;19.98;;;7.40;74.20;;;;;;4959096;28;20035;-62
2021/03/02 03:19:21;;;;;;;43.20;20.93;;;7.40;74.30;;;;;;4950879;29;20035;-62
2021/03/02 03:21:47;;;;;;;38.40;21.38;;;7.40;74.30;;;;;;4952223;28;20036;-62
2021/03/02 03:24:13;;;;;;;37.08;20.02;;;7.40;74.30;;;;;;4956248;28;20034;-62
2021/03/02 03:26:40;;;;;;;34.88;19.48;;;7.40;74.30;;;;;;4966476;28;20035;-62
2021/03/02 03:29:07;;;;;;;41.35;21.13;;;7.40;74.30;;;;;;4956290;28;20118;-62
2021/03/02 03:31:33;;;;;;;36.50;20.67;;;7.40;74.20;;;;;;4982127;28;20115;-62
2021/03/02 03:34:00;;;;;;;36.22;19.85;;;7.40;74.20;;;;;;5016259;28;20198;-62
2021/03/02 03:36:27;;;;;;;40.10;18.88;;;7.40;74.20;;;;;;4951019;28;20092;-62
2021/03/02 03:38:53;;;;;;;36.92;19.08;;;7.40;74.20;;;;;;4962558;28;20042;-62
2021/03/02 03:41:18;;;;;;;37.38;19.15;;;7.30;74.30;;;;;;5025761;28;20035;-61
2021/03/02 03:43:44;;;;;;;36.42;18.80;;;7.30;74.30;;;;;;4951367;28;20042;-62
2021/03/02 03:46:09;;;;;;;43.00;22.42;;;7.30;74.50;;;;;;4999102;28;20418;-62
2021/03/02 03:48:35;;;;;;;40.65;21.35;;;7.30;74.50;;;;;;4966020;28;20047;-62
2021/03/02 03:51:02;;;;;;;36.40;19.55;;;7.20;74.50;;;;;;4965151;28;20372;-62
2021/03/02 03:53:32;;;;;;;35.33;20.52;;;7.30;74.70;;;;;;4952090;28;20548;-62
2021/03/02 03:55:59;;;;;;;37.60;19.60;;;7.20;74.60;;;;;;4951609;28;20119;-62
2021/03/02 03:58:29;;;;;;;37.60;20.27;;;7.30;74.60;;;;;;4996125;28;20057;-62
2021/03/02 04:00:55;;;;;;;36.63;20.35;;;7.20;74.50;;;;;;5022029;28;20386;-62
2021/03/02 04:03:23;;;;;;;33.00;18.67;;;7.20;74.70;;;;;;5026441;28;20044;-62
2021/03/02 04:05:49;;;;;;;36.13;20.73;;;7.20;74.80;;;;;;5031803;28;20033;-62
2021/03/02 04:08:16;;;;;;;35.53;18.65;;;7.20;74.70;;;;;;4992876;28;20033;-61
2021/03/02 04:10:42;;;;;;;41.15;20.88;;;7.20;75.20;;;;;;4972624;28;20024;-61
2021/03/02 04:13:13;;;;;;;37.90;20.83;;;7.20;74.50;;;;;;4972950;28;20044;-61
2021/03/02 04:15:39;;;;;;;40.58;21.45;;;7.20;74.50;;;;;;4970716;28;20489;-61
2021/03/02 04:18:13;;;;;;;41.70;20.35;;;7.20;74.50;;;;;;4973045;28;20040;-61
2021/03/02 04:20:39;;;;;;;39.83;19.65;;;7.20;74.60;;;;;;5006321;28;20107;-61
2021/03/02 04:23:05;;;;;;;38.05;20.38;;;7.20;74.50;;;;;;4966624;28;20617;-61
2021/03/02 04:25:31;;;;;;;37.20;19.00;;;7.20;74.40;;;;;;4951539;28;20114;-62
2021/03/02 04:27:58;;;;;;;34.33;18.93;;;7.20;74.30;;;;;;4993862;28;20040;-61
2021/03/02 04:30:24;;;;;;;38.63;18.85;;;7.30;74.10;;;;;;4967580;28;20080;-61
2021/03/02 04:32:49;;;;;;;39.47;20.83;;;7.30;74.10;;;;;;4956061;28;20100;-61
2021/03/02 04:35:15;;;;;;;38.13;20.50;;;7.30;74.10;;;;;;4978710;28;20056;-61
2021/03/02 04:37:41;;;;;;;34.57;20.60;;;7.30;74.10;;;;;;4949392;28;20061;-61
2021/03/02 04:40:07;;;;;;;37.25;18.85;;;7.30;74.10;;;;;;4949136;28;20036;-61
2021/03/02 04:42:33;;;;;;;34.53;16.85;;;7.30;74.20;;;;;;4956065;28;20027;-61
2021/03/02 04:44:58;;;;;;;35.65;18.45;;;7.20;74.10;;;;;;4965563;28;20062;-61
2021/03/02 04:47:24;;;;;;;33.70;18.38;;;7.30;74.10;;;;;;4969121;28;20126;-61
2021/03/02 04:49:50;;;;;;;36.33;19.05;;;7.30;74.10;;;;;;4967846;28;20039;-61
2021/03/02 04:52:19;;;;;;;40.60;22.15;;;7.30;74.00;;;;;;4952534;28;20039;-61
2021/03/02 04:54:44;;;;;;;34.92;17.45;;;7.20;74.00;;;;;;4948572;29;20035;-61
2021/03/02 04:57:10;;;;;;;35.03;17.10;;;7.30;74.00;;;;;;4950425;28;20081;-61
2021/03/02 04:59:36;;;;;;;33.75;17.95;;;7.20;73.90;;;;;;4961185;28;20106;-61
2021/03/02 05:02:02;;;;;;;34.95;18.02;;;7.20;73.80;;;;;;4950198;28;20035;-61
2021/03/02 05:04:27;;;;;;;32.00;17.38;;;7.30;73.90;;;;;;4947061;28;20399;-62
2021/03/02 05:06:53;;;;;;;34.70;19.02;;;7.20;74.00;;;;;;4950252;28;20419;-62
2021/03/02 05:09:19;;;;;;;34.53;19.23;;;7.20;73.90;;;;;;4949532;29;20043;-61
2021/03/02 05:11:44;;;;;;;34.73;18.70;;;7.20;73.90;;;;;;4950062;28;20039;-61
2021/03/02 05:14:10;;;;;;;38.28;18.60;;;7.10;74.00;;;;;;4936706;28;20115;-62
2021/03/02 05:16:36;;;;;;;35.37;17.50;;;7.10;74.10;;;;;;4940093;28;20108;-61
2021/03/02 05:19:01;;;;;;;35.08;17.88;;;7.10;74.20;;;;;;4948318;28;20218;-62
2021/03/02 05:21:27;;;;;;;32.25;17.30;;;7.10;74.20;;;;;;4944823;28;20036;-61
2021/03/02 05:23:53;;;;;;;34.22;18.92;;;7.10;74.30;;;;;;4937402;28;20059;-61
2021/03/02 05:26:21;;;;;;;34.33;17.33;;;7.00;74.30;;;;;;4949691;28;20114;-61
2021/03/02 05:28:50;;;;;;;36.70;19.08;;;7.00;74.50;;;;;;4961099;28;20545;-61
2021/03/02 05:31:16;;;;;;;40.00;22.23;;;6.90;74.50;;;;;;4964001;28;20029;-61
2021/03/02 05:33:42;;;;;;;33.92;17.85;;;6.90;74.70;;;;;;4970356;28;20043;-62
2021/03/02 05:36:08;;;;;;;36.67;19.37;;;6.90;74.80;;;;;;4993426;28;20442;-61
2021/03/02 05:38:35;;;;;;;38.27;19.00;;;6.90;75.00;;;;;;4970629;28;20036;-61
2021/03/02 05:41:02;;;;;;;32.17;17.57;;;6.90;75.20;;;;;;4958760;28;20039;-61
2021/03/02 05:43:29;;;;;;;33.85;17.80;;;6.80;75.20;;;;;;4955266;28;20448;-62
2021/03/02 05:45:55;;;;;;;33.13;21.03;;;6.90;75.20;;;;;;4967769;28;20068;-62
2021/03/02 05:48:21;;;;;;;36.95;18.48;;;6.90;75.20;;;;;;4948699;29;20445;-62
2021/03/02 05:50:47;;;;;;;39.93;20.37;;;6.90;75.10;;;;;;4950145;28;20032;-62
2021/03/02 05:53:13;;;;;;;39.60;19.70;;;6.90;75.20;;;;;;4954903;28;20424;-62
2021/03/02 05:55:39;;;;;;;32.93;18.83;;;6.90;75.10;;;;;;4938368;29;20130;-61
2021/03/02 05:58:05;;;;;;;38.10;20.63;;;6.90;75.00;;;;;;4942908;28;20059;-62
2021/03/02 06:00:34;;;;;;;44.20;22.03;;;6.90;75.10;;;;;;4952304;28;20058;-62
2021/03/02 06:03:00;;;;;;;38.25;20.42;;;6.90;75.10;;;;;;4976715;28;20305;-63
2021/03/02 06:05:26;;;;;;;42.13;23.17;;;6.90;75.20;;;;;;4951626;28;20039;-62
2021/03/02 06:07:52;;;;;;;35.35;20.50;;;6.90;75.20;;;;;;4960002;28;20035;-61
2021/03/02 06:10:18;;;;;;;45.73;23.43;;;6.90;75.20;;;;;;4947590;28;20031;-62
2021/03/02 06:12:54;;;;;;;35.43;20.83;;;6.90;75.20;;;;;;4941476;29;20043;-61
2021/03/02 06:15:20;;;;;;;38.42;19.27;;;6.90;75.40;;;;;;4948921;28;20062;-62
2021/03/02 06:17:47;;;;;;;38.10;20.53;;;6.90;75.50;;;;;;4960084;28;20035;-62
2021/03/02 06:20:22;;;;;;;42.97;24.65;;;6.90;75.50;;;;;;4949126;28;20120;-61
2021/03/02 06:22:48;;;;;;;44.47;22.27;;;6.90;75.60;;;;;;4957747;28;20322;-62
2021/03/02 06:25:33;;;;;;;35.23;20.00;;;6.90;75.60;;;;;;4953372;28;20031;-62
2021/03/02 06:27:59;;;;;;;36.67;22.40;;;6.90;75.70;;;;;;4963417;28;20045;-62
2021/03/02 06:30:25;;;;;;;36.10;19.23;;;6.90;75.60;;;;;;4987909;28;20451;-62
2021/03/02 06:32:53;;;;;;;40.33;21.37;;;6.90;75.70;;;;;;4946559;28;20408;-62
2021/03/02 06:35:42;;;;;;;44.53;21.87;;;6.90;75.70;;;;;;4968399;28;20132;-62
2021/03/02 06:38:08;;;;;;;39.83;22.20;;;6.80;75.70;;;;;;5004448;28;20115;-62
2021/03/02 06:40:50;;;;;;;39.47;23.40;;;6.90;75.80;;;;;;4947743;28;20494;-63
2021/03/02 06:43:38;;;;;;;35.77;19.60;;;6.80;75.90;;;;;;5048654;28;20025;-62
2021/03/02 06:46:11;;;;;;;34.83;20.83;;;6.90;75.90;;;;;;4934637;28;20156;-62
2021/03/02 06:48:56;;;;;;;41.90;22.30;;;6.90;75.80;;;;;;4946458;28;20039;-64
2021/03/02 06:51:30;;;;;;;37.63;20.43;;;6.90;75.90;;;;;;4948829;28;20034;-63
2021/03/02 06:54:10;;;;;;;;;;;6.90;75.70;;;;;;4946317;28;20056;-62
2021/03/02 06:56:39;;;;;;;36.27;21.13;;;7.00;75.70;;;;;;4934088;28;19921;-62
2021/03/02 06:59:19;;;;;;;36.90;20.57;;;7.00;75.60;;;;;;4946654;28;20070;-61
2021/03/02 07:01:47;;;;;;;36.30;20.47;;;7.00;75.70;;;;;;4948242;29;20082;-61
2021/03/02 07:04:18;;;;;;;35.53;18.87;;;7.00;75.60;;;;;;4935720;28;20123;-61
2021/03/02 07:06:46;;;;;;;33.63;18.80;;;7.10;75.50;;;;;;4981093;28;20025;-61
2021/03/02 07:09:13;;;;;;;40.50;21.70;;;7.10;75.30;;;;;;4957087;28;20036;-62
2021/03/02 07:11:40;;;;;;;37.03;20.10;;;7.20;75.10;;;;;;5003761;28;20100;-62
2021/03/02 07:14:08;;;;;;;37.77;20.83;;;7.30;75.00;;;;;;4964981;28;20043;-62
2021/03/02 07:16:38;;;;;;;32.97;19.23;;;7.30;75.00;;;;;;4976801;28;20097;-62
2021/03/02 07:19:05;;;;;;;30.73;17.40;;;7.30;74.90;;;;;;4980752;28;20025;-62
2021/03/02 07:21:37;;;;;;;39.63;19.13;;;7.30;74.80;;;;;;4963111;28;20074;-62
2021/03/02 07:24:12;;;;;;;33.67;18.83;;;7.40;74.70;;;;;;4948638;28;20106;-62
2021/03/02 07:26:43;;;;;;;29.38;15.98;;;7.40;74.60;;;;;;4947180;28;20032;-61
2021/03/02 07:29:10;;;;;;;31.48;17.88;;;7.50;74.50;;;;;;4948434;29;20047;-62
2021/03/02 07:31:37;;;;;;;36.42;19.48;;;7.60;74.30;;;;;;4943597;28;20087;-63
2021/03/02 07:34:05;;;;;;;35.80;19.23;;;7.70;74.10;;;;;;4947379;28;20135;-62
2021/03/02 07:36:42;;;;;;;32.28;18.48;;;7.80;74.10;;;;;;4935982;28;20047;-61
2021/03/02 07:39:17;;;;;;;35.03;19.00;;;7.80;73.90;;;;;;4948029;28;20032;-61
2021/03/02 07:41:44;;;;;;;31.42;18.52;;;8.00;73.70;;;;;;4949607;28;20043;-62
2021/03/02 07:44:10;;;;;;;30.75;18.40;;;8.30;73.20;;;;;;4951267;28;20039;-61
2021/03/02 07:46:41;;;;;;;32.40;17.00;;;8.80;72.70;;;;;;4965876;28;20070;-61
2021/03/02 07:49:31;;;;;;;28.42;16.27;;;9.80;70.70;;;;;;4950631;28;20035;-61
2021/03/02 07:52:00;;;;;;;27.88;17.50;;;10.80;67.90;;;;;;4961279;28;20544;-61
2021/03/02 07:54:27;;;;;;;25.85;15.68;;;11.80;64.60;;;;;;4947787;28;20149;-62
2021/03/02 07:57:15;;;;;;;26.02;16.60;;;12.60;61.60;;;;;;4949937;28;20031;-62
2021/03/02 07:59:45;;;;;;;25.98;15.50;;;13.50;58.80;;;;;;4934339;28;20032;-62
2021/03/02 08:02:21;;;;;;;26.42;17.65;;;14.50;56.00;;;;;;4971081;28;20033;-62
2021/03/02 08:05:26;;;;;;;29.08;15.43;;;15.50;53.10;;;;;;4941702;28;20407;-62
2021/03/02 08:08:11;;;;;;;;;;;17.00;50.80;;;;;;4951620;28;20057;-62
2021/03/02 08:10:37;;;;;;;22.15;14.20;;;19.70;44.00;;;;;;4943723;28;20046;-62
2021/03/02 08:13:31;;;;;;;21.10;14.45;;;19.80;44.80;;;;;;5026275;28;20119;-63
2021/03/02 08:15:57;;;;;;;21.70;14.52;;;21.80;38.10;;;;;;4972934;28;20046;-63
2021/03/02 08:18:49;;;;;;;20.52;14.30;;;21.90;39.30;;;;;;5014403;28;20027;-63
2021/03/02 08:21:18;;;;;;;19.60;13.95;;;22.80;37.00;;;;;;4982303;28;20047;-63
2021/03/02 08:23:53;;;;;;;19.17;13.80;;;23.00;35.00;;;;;;4958775;28;20023;-63
2021/03/02 08:26:25;;;;;;;19.92;14.50;;;23.30;34.50;;;;;;4961704;28;20021;-63
2021/03/02 08:29:15;;;;;;;18.10;12.80;;;23.50;33.60;;;;;;4970297;28;20031;-63
2021/03/02 08:31:46;;;;;;;17.70;13.18;;;23.40;32.90;;;;;;4965331;28;20403;-68
2021/03/02 08:34:13;;;;;;;17.42;13.50;;;23.20;33.70;;;;;;5004037;28;20080;-63
2021/03/02 08:36:40;;;;;;;16.58;12.95;;;22.90;33.80;;;;;;4963977;28;20039;-63
2021/03/02 08:39:14;;;;;;;17.83;12.40;;;23.40;33.40;;;;;;4988781;28;20116;-63
2021/03/02 08:41:43;;;;;;;18.13;12.65;;;24.10;32.10;;;;;;4966829;28;20453;-63
2021/03/02 08:44:26;;;;;;;18.42;13.23;;;24.30;31.30;;;;;;4998715;28;20087;-63
2021/03/02 08:46:55;;;;;;;18.95;13.82;;;24.90;30.80;;;;;;4944155;28;20106;-63
2021/03/02 08:49:21;;;;;;;18.05;13.23;;;25.30;30.10;;;;;;4977181;28;20015;-63
2021/03/02 08:51:47;;;;;;;17.55;13.02;;;26.00;29.50;;;;;;4957891;28;20315;-63
2021/03/02 08:54:13;;;;;;;15.70;12.25;;;26.70;29.00;;;;;;4980096;28;20033;-63
2021/03/02 08:56:39;;;;;;;16.92;12.77;;;27.30;28.00;;;;;;4965750;28;20031;-64
2021/03/02 08:59:06;;;;;;;19.48;13.85;;;27.90;27.40;;;;;;4931278;29;20115;-63
2021/03/02 09:01:34;;;;;;;16.38;12.75;;;28.80;27.20;;;;;;4991549;28;20102;-63
2021/03/02 09:04:20;;;;;;;19.70;14.68;;;29.20;26.70;;;;;;4948097;28;20097;-63
2021/03/02 09:06:47;;;;;;;17.35;13.95;;;30.00;26.20;;;;;;4981227;28;20128;-63
2021/03/02 09:09:16;;;;;;;16.75;13.32;;;30.40;26.00;;;;;;5006297;28;20032;-64
2021/03/02 09:11:44;;;;;;;18.52;12.77;;;30.40;25.90;;;;;;4982404;28;20060;-64
2021/03/02 09:14:23;;;;;;;17.98;13.57;;;30.50;25.60;;;;;;4990473;28;20649;-63
2021/03/02 09:16:59;;;;;;;17.10;13.20;;;30.80;25.50;;;;;;4973287;28;20384;-63
2021/03/02 09:19:35;;;;;;;15.65;12.82;;;30.80;25.40;;;;;;4970387;28;20022;-63
2021/03/02 09:22:07;;;;;;;17.85;13.73;;;31.00;25.00;;;;;;4959493;28;20489;-63
2021/03/02 09:24:36;;;;;;;17.95;13.50;;;31.30;25.10;;;;;;4949925;28;20035;-63
2021/03/02 09:27:04;;;;;;;17.17;13.18;;;31.40;25.70;;;;;;4973349;28;20027;-63
2021/03/02 09:29:39;;;;;;;16.98;13.60;;;30.90;25.00;;;;;;4949524;29;20054;-63
2021/03/02 09:32:05;;;;;;;17.58;13.68;;;30.80;25.60;;;;;;4949516;28;20045;-63
2021/03/02 09:34:34;;;;;;;16.65;13.70;;;30.10;25.80;;;;;;4948930;28;20035;-63
2021/03/02 09:37:02;;;;;;;16.23;12.50;;;28.80;26.30;;;;;;4949711;28;20036;-63
2021/03/02 09:39:29;;;;;;;19.13;13.75;;;28.40;26.50;;;;;;4949207;28;20035;-63
2021/03/02 09:41:54;;;;;;;16.23;14.02;;;28.00;26.80;;;;;;4949915;28;20035;-63
2021/03/02 09:44:24;;;;;;;16.55;13.05;;;28.00;27.30;;;;;;4949614;28;20420;-64
2021/03/02 09:46:53;;;;;;;17.75;13.55;;;27.60;27.80;;;;;;4929189;28;20051;-63
2021/03/02 09:49:47;;;;;;;17.30;13.20;;;27.70;27.10;;;;;;4959682;28;20027;-63
2021/03/02 09:52:46;;;;;;;17.65;14.20;;;27.70;26.80;;;;;;4949145;28;20039;-63
2021/03/02 09:55:18;;;;;;;16.35;12.55;;;26.90;27.50;;;;;;4949853;29;20112;-63
2021/03/02 09:57:52;;;;;;;18.52;13.25;;;25.60;28.30;;;;;;4949747;28;20370;-63
2021/03/02 10:00:27;;;;;;;17.85;13.15;;;23.90;30.00;;;;;;4966834;28;20030;-63
2021/03/02 10:03:05;;;;;;;18.27;13.75;;;22.40;31.80;;;;;;4956049;28;20035;-62
2021/03/02 10:05:42;;;;;;;18.35;13.10;;;21.00;33.70;;;;;;4950289;28;20500;-62
2021/03/02 10:08:20;;;;;;;21.80;14.70;;;20.00;36.00;;;;;;4951964;28;20488;-62
2021/03/02 10:10:46;;;;;;;19.65;14.23;;;19.50;36.80;;;;;;4944037;28;20036;-62
2021/03/02 10:13:12;;;;;;;18.70;13.63;;;20.80;37.20;;;;;;4937107;28;20135;-62
2021/03/02 10:15:38;;;;;;;19.80;14.57;;;22.00;35.00;;;;;;5034415;28;20040;-62
2021/03/02 10:18:25;;;;;;;17.00;12.45;;;23.00;33.20;;;;;;4970587;28;20141;-62
2021/03/02 10:21:08;;;;;;;18.25;13.38;;;24.20;32.10;;;;;;4945740;28;20042;-63
2021/03/02 10:23:46;;;;;;;16.42;12.52;;;25.50;30.50;;;;;;4949891;28;20039;-63
2021/03/02 10:26:19;;;;;;;17.35;12.50;;;26.70;29.30;;;;;;4964089;28;20054;-63
2021/03/02 10:28:45;;;;;;;18.58;12.63;;;27.00;28.80;;;;;;4963517;28;20088;-63
2021/03/02 10:31:11;;;;;;;19.85;12.82;;;26.90;29.30;;;;;;4963505;28;20031;-63
2021/03/02 10:33:36;;;;;;;19.55;12.65;;;26.30;29.50;;;;;;4948446;29;20039;-62
2021/03/02 10:36:02;;;;;;;17.92;13.60;;;23.40;31.80;;;;;;4946111;28;20114;-63
2021/03/02 10:38:28;;;;;;;20.92;14.38;;;21.90;34.30;;;;;;4946848;29;20054;-63
2021/03/02 10:40:53;;;;;;;18.30;12.95;;;21.50;35.20;;;;;;4945963;29;20385;-63
2021/03/02 10:43:19;;;;;;;22.30;13.00;;;19.90;38.00;;;;;;4947091;28;20059;-62
2021/03/02 10:45:45;;;;;;;20.45;13.80;;;19.20;39.40;;;;;;4943257;28;20250;-63
2021/03/02 10:48:11;;;;;;;17.30;12.93;;;18.90;40.30;;;;;;4946292;28;20031;-62
2021/03/02 10:50:37;;;;;;;19.20;13.32;;;19.30;40.50;;;;;;4947989;28;20138;-63
2021/03/02 10:53:03;;;;;;;18.80;13.30;;;19.40;40.80;;;;;;4941913;28;20046;-63
2021/03/02 10:55:28;;;;;;;17.40;12.13;;;21.20;39.00;;;;;;4946001;28;20035;-63
2021/03/02 10:57:54;;;;;;;16.50;11.60;;;23.20;35.50;;;;;;4948668;28;20423;-63
2021/03/02 11:00:20;;;;;;;16.08;10.93;;;24.90;33.10;;;;;;4949112;28;20050;-63
2021/03/02 11:02:45;;;;;;;15.05;11.45;;;26.10;31.00;;;;;;4944062;28;20039;-63
2021/03/02 11:05:11;;;;;;;14.80;10.63;;;28.10;28.80;;;;;;4932088;28;20040;-63
2021/03/02 11:07:38;;;;;;;13.10;9.65;;;28.30;28.50;;;;;;4968329;28;20035;-63
2021/03/02 11:10:05;;;;;;;14.93;10.95;;;29.00;28.20;;;;;;4978487;28;20025;-63
2021/03/02 11:12:31;;;;;;;16.02;10.50;;;29.80;27.70;;;;;;4957104;28;20043;-64
2021/03/02 11:14:57;;;;;;;16.70;10.30;;;29.90;28.30;;;;;;4958425;28;20054;-63
2021/03/02 11:17:22;;;;;;;14.90;10.35;;;31.70;26.30;;;;;;4932442;28;20099;-64
2021/03/02 11:19:49;;;;;;;12.68;8.25;;;31.90;24.80;;;;;;4951882;28;20038;-63
2021/03/02 11:22:14;;;;;;;12.80;9.38;;;31.70;24.70;;;;;;4950009;28;20062;-63
2021/03/02 11:24:40;;;;;;;11.75;8.07;;;31.60;25.30;;;;;;4977795;28;20064;-64
2021/03/02 11:27:06;;;;;;;11.77;7.63;;;31.50;24.50;;;;;;5004025;28;20033;-64
2021/03/02 11:29:35;;;;;;;13.57;8.52;;;31.40;24.70;;;;;;5045288;28;20032;-63
2021/03/02 11:32:02;;;;;;;12.90;8.07;;;31.80;24.70;;;;;;4960200;28;20495;-63
2021/03/02 11:34:27;;;;;;;15.38;9.38;;;32.60;24.30;;;;;;4949176;28;20054;-64
2021/03/02 11:36:53;;;;;;;12.98;8.48;;;31.70;24.40;;;;;;4947933;28;20040;-63
2021/03/02 11:39:19;;;;;;;12.02;9.27;;;31.60;24.90;;;;;;4954643;28;20225;-63
2021/03/02 11:41:44;;;;;;;11.13;8.05;;;31.00;25.10;;;;;;4993485;28;20047;-63
2021/03/02 11:44:10;;;;;;;14.73;9.23;;;31.00;25.70;;;;;;4951805;28;20070;-64
2021/03/02 11:46:35;;;;;;;13.13;8.73;;;28.70;26.10;;;;;;4954124;28;20138;-63
2021/03/02 11:49:01;;;;;;;13.85;8.95;;;27.00;27.30;;;;;;4950571;28;20127;-63
2021/03/02 11:51:27;;;;;;;13.40;8.90;;;25.60;28.30;;;;;;4934569;29;20050;-63
2021/03/02 11:53:52;;;;;;;13.00;8.88;;;24.10;29.70;;;;;;4969084;28;20035;-62
2021/03/02 11:56:18;;;;;;;11.98;8.95;;;22.90;31.20;;;;;;4946832;28;20031;-62
2021/03/02 11:58:43;;;;;;;12.70;8.95;;;22.00;32.80;;;;;;4990382;28;20041;-62
2021/03/02 12:01:09;;;;;;;14.88;10.10;;;21.30;34.00;;;;;;5032126;28;20032;-62
2021/03/02 12:03:34;;;;;;;16.45;10.23;;;20.90;35.20;;;;;;4945773;29;20051;-65
2021/03/02 12:06:00;;;;;;;14.85;10.18;;;20.50;35.90;;;;;;4935764;28;20040;-65
2021/03/02 12:08:26;;;;;;;13.85;8.73;;;20.20;36.20;;;;;;4950060;28;20536;-65
2021/03/02 12:10:52;;;;;;;11.85;8.20;;;20.00;36.60;;;;;;4951633;28;20035;-65
2021/03/02 12:13:18;;;;;;;14.15;8.88;;;19.90;37.10;;;;;;4983503;28;20041;-65
2021/03/02 12:15:44;;;;;;;14.43;8.60;;;19.70;37.70;;;;;;4989244;28;20087;-64
2021/03/02 12:18:10;;;;;;;13.13;9.25;;;19.70;37.90;;;;;;4954226;28;20032;-65
2021/03/02 12:20:36;;;;;;;17.13;9.48;;;19.60;37.90;;;;;;4951722;28;20049;-62
2021/03/02 12:23:01;;;;;;;14.02;9.27;;;19.40;38.00;;;;;;4951052;28;20485;-62
2021/03/02 12:25:27;;;;;;;15.60;9.88;;;19.40;38.30;;;;;;4950664;28;20213;-65
2021/03/02 12:27:53;;;;;;;20.85;10.93;;;19.30;38.80;;;;;;4978521;28;20047;-65
2021/03/02 12:30:19;;;;;;;16.80;10.25;;;19.10;38.50;;;;;;4950355;28;20145;-65
2021/03/02 12:32:45;;;;;;;16.88;9.23;;;18.90;39.10;;;;;;4962430;28;20486;-65
2021/03/02 12:35:11;;;;;;;18.58;10.38;;;18.80;39.70;;;;;;5002840;28;20067;-64
2021/03/02 12:37:37;;;;;;;15.98;9.90;;;18.70;40.30;;;;;;4949582;28;20030;-64
2021/03/02 12:40:04;;;;;;;16.33;10.23;;;18.60;40.50;;;;;;4952029;28;20039;-65
2021/03/02 12:42:30;;;;;;;17.23;10.55;;;18.70;39.70;;;;;;4951383;28;20059;-64
2021/03/02 12:44:55;;;;;;;15.70;9.93;;;18.60;40.20;;;;;;4966754;28;20075;-65